Time;durP1;ratioP1;P1;durP2;ratioP2;P2;SDS_P1;SDS_P2;PMS_P1;PMS_P2;Temp;Humidity;BMP_temperature;BMP_pressure;BME280_temperature;BME280_humidity;BME280_pressure;Samples;Min_cycle;Max_cycle;Signal;HPM_P1;HPM_P2
2024/04/02 00:01:05;;;;;;;1.30;0.40;;;;;;;;;;5124337;28;20377;-83
2024/04/02 00:03:31;;;;;;;0.60;0.57;;;;;;;;;;5124297;28;20391;-83
2024/04/02 00:05:58;;;;;;;2.20;0.80;;;;;;;;;;5123813;28;20392;-83
2024/04/02 00:08:24;;;;;;;0.80;0.80;;;;;;;;;;5123253;28;20719;-83
2024/04/02 00:10:50;;;;;;;1.00;0.80;;;;;;;;;;5122805;28;20841;-83
2024/04/02 00:13:16;;;;;;;1.15;0.85;;;;;;;;;;5122987;28;20375;-83
2024/04/02 00:15:48;;;;;;;0.93;0.60;;;;;;;;;;5122968;28;20467;-83
2024/04/02 00:18:15;;;;;;;0.90;0.70;;;;;;;;;;5123505;28;20471;-83
2024/04/02 00:20:41;;;;;;;0.80;0.68;;;;;;;;;;5123993;28;20868;-83
2024/04/02 00:23:08;;;;;;;1.27;0.90;;;;;;;;;;5122917;28;20413;-83
2024/04/02 00:25:35;;;;;;;1.48;0.98;;;;;;;;;;5123496;28;20885;-83
2024/04/02 00:28:01;;;;;;;0.80;0.80;;;;;;;;;;5123414;28;20368;-83
2024/04/02 00:30:28;;;;;;;1.25;0.68;;;;;;;;;;5122990;28;20837;-83
2024/04/02 00:32:55;;;;;;;1.05;0.93;;;;;;;;;;5122992;28;20400;-83
2024/04/02 00:35:21;;;;;;;1.90;1.23;;;;;;;;;;5123680;28;20377;-83
2024/04/02 00:37:47;;;;;;;2.10;1.40;;;;;;;;;;5122577;28;20372;-83
2024/04/02 00:40:14;;;;;;;1.95;1.40;;;;;;;;;;5123317;28;20376;-83
2024/04/02 00:42:40;;;;;;;1.33;0.90;;;;;;;;;;5122780;28;20734;-81
2024/04/02 00:45:06;;;;;;;1.15;0.80;;;;;;;;;;5122653;28;20412;-81
2024/04/02 00:47:32;;;;;;;0.60;0.60;;;;;;;;;;5122380;28;20388;-81
2024/04/02 00:49:59;;;;;;;1.02;0.70;;;;;;;;;;5122608;28;20386;-81
2024/04/02 00:52:25;;;;;;;0.63;0.63;;;;;;;;;;5121728;28;20480;-81
2024/04/02 00:54:51;;;;;;;1.50;1.00;;;;;;;;;;5122374;28;20442;-83
2024/04/02 00:57:18;;;;;;;1.15;1.05;;;;;;;;;;5121174;28;20389;-83
2024/04/02 00:59:44;;;;;;;1.50;1.10;;;;;;;;;;5118307;28;20405;-83
2024/04/02 01:02:10;;;;;;;0.98;0.88;;;;;;;;;;5120886;28;20405;-83
2024/04/02 01:04:36;;;;;;;1.30;1.10;;;;;;;;;;5102801;28;20848;-83
2024/04/02 01:07:02;;;;;;;1.05;0.90;;;;;;;;;;5100767;28;20381;-83
2024/04/02 01:09:30;;;;;;;1.13;0.90;;;;;;;;;;5101434;28;20797;-83
2024/04/02 01:11:56;;;;;;;1.27;0.73;;;;;;;;;;5101393;28;20381;-83
2024/04/02 01:14:22;;;;;;;1.50;0.85;;;;;;;;;;5100478;28;20379;-83
2024/04/02 01:16:48;;;;;;;1.25;0.88;;;;;;;;;;5101539;28;20378;-83
2024/04/02 01:19:14;;;;;;;1.30;0.80;;;;;;;;;;5102019;28;20382;-83
2024/04/02 01:21:41;;;;;;;1.33;0.80;;;;;;;;;;5100509;28;20374;-83
2024/04/02 01:24:07;;;;;;;1.03;0.90;;;;;;;;;;5100034;28;20460;-83
2024/04/02 01:26:33;;;;;;;0.70;0.70;;;;;;;;;;5101132;28;20393;-83
2024/04/02 01:29:02;;;;;;;1.17;0.60;;;;;;;;;;5100981;28;20392;-83
2024/04/02 01:31:28;;;;;;;0.60;0.60;;;;;;;;;;5100664;28;20374;-83
2024/04/02 01:33:54;;;;;;;0.80;0.80;;;;;;;;;;5100967;28;20386;-83
2024/04/02 01:36:20;;;;;;;0.70;0.70;;;;;;;;;;5100139;28;20366;-83
2024/04/02 01:38:46;;;;;;;0.98;0.60;;;;;;;;;;5100626;28;20843;-83
2024/04/02 01:41:12;;;;;;;1.30;0.70;;;;;;;;;;5100396;28;20379;-83
2024/04/02 01:43:38;;;;;;;1.48;0.60;;;;;;;;;;5100419;28;20378;-83
2024/04/02 01:46:05;;;;;;;0.75;0.60;;;;;;;;;;5100372;28;20446;-83
2024/04/02 01:48:31;;;;;;;0.88;0.60;;;;;;;;;;5100299;28;20378;-83
2024/04/02 01:50:57;;;;;;;0.60;0.60;;;;;;;;;;5099645;28;20374;-83
2024/04/02 01:53:23;;;;;;;1.27;0.70;;;;;;;;;;5099685;28;20762;-83
2024/04/02 01:55:49;;;;;;;0.80;0.80;;;;;;;;;;5099973;28;20385;-83
2024/04/02 01:58:15;;;;;;;0.70;0.70;;;;;;;;;;5099701;28;20421;-83
2024/04/02 02:00:41;;;;;;;1.00;0.70;;;;;;;;;;5099649;28;20404;-83
2024/04/02 02:03:07;;;;;;;0.70;0.70;;;;;;;;;;5099838;28;20378;-83
2024/04/02 02:05:33;;;;;;;0.87;0.77;;;;;;;;;;5100206;28;20960;-83
2024/04/02 02:07:59;;;;;;;0.73;0.73;;;;;;;;;;5099291;28;20381;-83
2024/04/02 02:10:25;;;;;;;0.63;0.60;;;;;;;;;;5098845;28;20403;-83
2024/04/02 02:12:51;;;;;;;0.67;0.67;;;;;;;;;;5099374;28;20732;-83
2024/04/02 02:15:18;;;;;;;0.70;0.60;;;;;;;;;;5098974;28;20386;-83
2024/04/02 02:17:47;;;;;;;0.70;0.70;;;;;;;;;;5099244;28;20370;-83
2024/04/02 02:20:13;;;;;;;0.60;0.60;;;;;;;;;;5099785;28;20407;-83
2024/04/02 02:22:40;;;;;;;2.17;0.88;;;;;;;;;;5099015;28;20435;-84
2024/04/02 02:25:06;;;;;;;1.20;1.10;;;;;;;;;;5098774;28;20489;-83
2024/04/02 02:27:32;;;;;;;1.00;0.90;;;;;;;;;;5099328;28;20698;-83
2024/04/02 02:29:58;;;;;;;1.30;1.20;;;;;;;;;;5098834;28;20377;-83
2024/04/02 02:32:24;;;;;;;1.10;1.00;;;;;;;;;;5098242;28;20493;-83
2024/04/02 02:34:50;;;;;;;1.58;0.80;;;;;;;;;;5098844;28;20878;-83
2024/04/02 02:37:16;;;;;;;1.10;1.00;;;;;;;;;;5099046;28;20382;-83
2024/04/02 02:39:42;;;;;;;1.10;1.00;;;;;;;;;;5097931;28;20438;-83
2024/04/02 02:42:08;;;;;;;1.00;0.90;;;;;;;;;;5098710;28;20848;-83
2024/04/02 02:44:34;;;;;;;0.93;0.80;;;;;;;;;;5098180;28;20455;-83
2024/04/02 02:47:00;;;;;;;1.00;0.90;;;;;;;;;;5095537;28;20836;-83
2024/04/02 02:49:26;;;;;;;1.10;0.85;;;;;;;;;;5097876;28;20374;-83
2024/04/02 02:51:52;;;;;;;0.60;0.60;;;;;;;;;;5098227;28;20427;-83
2024/04/02 02:54:18;;;;;;;0.50;0.50;;;;;;;;;;5098286;28;20374;-83
2024/04/02 02:56:44;;;;;;;0.50;0.50;;;;;;;;;;5098770;28;21006;-83
2024/04/02 02:59:10;;;;;;;0.40;0.40;;;;;;;;;;5098705;28;20386;-83
2024/04/02 03:01:36;;;;;;;0.80;0.45;;;;;;;;;;5098228;28;20385;-83
2024/04/02 03:04:02;;;;;;;0.50;0.50;;;;;;;;;;5098164;28;20441;-83
2024/04/02 03:06:28;;;;;;;0.45;0.45;;;;;;;;;;5103951;28;20401;-83
2024/04/02 03:08:55;;;;;;;0.50;0.50;;;;;;;;;;5118036;28;20489;-83
2024/04/02 03:11:21;;;;;;;0.50;0.50;;;;;;;;;;5118181;28;20372;-82
2024/04/02 03:13:47;;;;;;;0.50;0.50;;;;;;;;;;5118270;28;20756;-82
2024/04/02 03:16:13;;;;;;;0.67;0.40;;;;;;;;;;5107139;28;20397;-81
2024/04/02 03:18:39;;;;;;;0.47;0.47;;;;;;;;;;5097866;28;20420;-81
2024/04/02 03:21:05;;;;;;;0.45;0.45;;;;;;;;;;5098949;28;20406;-82
2024/04/02 03:23:31;;;;;;;0.70;0.50;;;;;;;;;;5102466;28;20822;-81
2024/04/02 03:26:00;;;;;;;0.40;0.40;;;;;;;;;;5100995;28;20433;-81
2024/04/02 03:28:26;;;;;;;0.40;0.40;;;;;;;;;;5101794;28;20461;-81
2024/04/02 03:30:56;;;;;;;0.60;0.50;;;;;;;;;;5101480;28;20409;-81
2024/04/02 03:33:22;;;;;;;0.38;0.38;;;;;;;;;;5101345;28;20421;-82
2024/04/02 03:35:48;;;;;;;0.28;0.22;;;;;;;;;;5100991;28;20386;-81
2024/04/02 03:38:14;;;;;;;0.40;0.30;;;;;;;;;;5101614;28;20567;-81
2024/04/02 03:40:40;;;;;;;0.35;0.30;;;;;;;;;;5101292;28;20738;-82
2024/04/02 03:43:06;;;;;;;0.30;0.22;;;;;;;;;;5101143;28;20366;-82
2024/04/02 03:45:38;;;;;;;0.40;0.30;;;;;;;;;;5100641;28;20408;-82
2024/04/02 03:48:04;;;;;;;0.50;0.40;;;;;;;;;;5100889;28;20835;-81
2024/04/02 03:50:30;;;;;;;0.20;0.10;;;;;;;;;;5100679;28;20378;-82
2024/04/02 03:52:56;;;;;;;0.30;0.30;;;;;;;;;;5100578;28;20382;-81
2024/04/02 03:55:22;;;;;;;1.10;0.22;;;;;;;;;;5100469;28;20416;-82
2024/04/02 03:57:48;;;;;;;0.60;0.30;;;;;;;;;;5100222;28;20388;-82
2024/04/02 04:00:14;;;;;;;0.63;0.30;;;;;;;;;;5100231;28;20386;-81
2024/04/02 04:02:40;;;;;;;0.20;0.20;;;;;;;;;;5100526;28;20397;-81
2024/04/02 04:05:06;;;;;;;0.82;0.40;;;;;;;;;;5101172;28;20405;-81
2024/04/02 04:07:32;;;;;;;0.50;0.50;;;;;;;;;;5101356;28;20374;-81
2024/04/02 04:09:58;;;;;;;0.47;0.40;;;;;;;;;;5101386;28;20366;-81
2024/04/02 04:12:24;;;;;;;0.30;0.30;;;;;;;;;;5101196;28;20769;-81
2024/04/02 04:14:51;;;;;;;0.70;0.30;;;;;;;;;;5101356;28;20381;-81
2024/04/02 04:17:17;;;;;;;0.80;0.30;;;;;;;;;;5100611;28;20516;-81
2024/04/02 04:19:43;;;;;;;1.13;0.30;;;;;;;;;;5101229;28;20386;-81
2024/04/02 04:22:09;;;;;;;0.30;0.30;;;;;;;;;;5100697;28;20839;-81
2024/04/02 04:24:35;;;;;;;0.40;0.30;;;;;;;;;;5100968;28;20398;-81
2024/04/02 04:27:00;;;;;;;0.70;0.30;;;;;;;;;;5100556;28;20866;-81
2024/04/02 04:29:27;;;;;;;0.30;0.20;;;;;;;;;;5100022;28;20396;-81
2024/04/02 04:31:53;;;;;;;0.50;0.30;;;;;;;;;;5099466;28;20394;-81
2024/04/02 04:34:19;;;;;;;0.20;0.20;;;;;;;;;;5100364;28;20436;-81
2024/04/02 04:36:45;;;;;;;0.22;0.20;;;;;;;;;;5100733;28;20405;-81
2024/04/02 04:39:11;;;;;;;0.40;0.30;;;;;;;;;;5100788;28;20385;-81
2024/04/02 04:41:37;;;;;;;0.55;0.40;;;;;;;;;;5100761;28;20855;-81
2024/04/02 04:44:03;;;;;;;0.60;0.30;;;;;;;;;;5101272;28;20913;-81
2024/04/02 04:46:29;;;;;;;1.97;1.33;;;;;;;;;;5101033;28;20471;-81
2024/04/02 04:48:55;;;;;;;2.10;1.20;;;;;;;;;;5100364;28;20370;-81
2024/04/02 04:51:21;;;;;;;0.40;0.40;;;;;;;;;;5100002;28;20378;-81
2024/04/02 04:53:47;;;;;;;1.00;0.20;;;;;;;;;;5100259;28;20835;-81
2024/04/02 04:56:13;;;;;;;0.50;0.40;;;;;;;;;;5100636;28;20406;-81
2024/04/02 04:58:40;;;;;;;0.30;0.30;;;;;;;;;;5099603;28;20866;-81
2024/04/02 05:01:06;;;;;;;0.65;0.40;;;;;;;;;;5100736;28;20499;-81
2024/04/02 05:03:32;;;;;;;0.55;0.30;;;;;;;;;;5099983;28;20843;-81
2024/04/02 05:06:05;;;;;;;0.90;0.30;;;;;;;;;;5099431;28;20434;-81
2024/04/02 05:08:33;;;;;;;0.60;0.30;;;;;;;;;;5099466;28;20406;-81
2024/04/02 05:10:59;;;;;;;0.50;0.40;;;;;;;;;;5108628;28;20376;-81
2024/04/02 05:13:25;;;;;;;1.25;0.40;;;;;;;;;;5119845;28;20400;-81
2024/04/02 05:15:51;;;;;;;0.73;0.30;;;;;;;;;;5118473;28;20722;-81
2024/04/02 05:18:17;;;;;;;0.20;0.20;;;;;;;;;;5116715;28;20380;-81
2024/04/02 05:20:44;;;;;;;0.88;0.35;;;;;;;;;;5102132;28;20481;-81
2024/04/02 05:23:11;;;;;;;0.50;0.38;;;;;;;;;;5096237;28;20382;-81
2024/04/02 05:25:37;;;;;;;0.52;0.40;;;;;;;;;;5096425;28;20539;-81
2024/04/02 05:28:03;;;;;;;0.30;0.30;;;;;;;;;;5095914;28;20382;-80
2024/04/02 05:30:29;;;;;;;0.32;0.30;;;;;;;;;;5095487;28;20406;-80
2024/04/02 05:32:55;;;;;;;0.43;0.30;;;;;;;;;;5095662;28;20455;-80
2024/04/02 05:35:21;;;;;;;0.50;0.40;;;;;;;;;;5098130;28;20502;-80
2024/04/02 05:37:51;;;;;;;0.60;0.50;;;;;;;;;;5098085;28;20446;-81
2024/04/02 05:40:17;;;;;;;0.73;0.40;;;;;;;;;;5097973;28;20382;-81
2024/04/02 05:42:45;;;;;;;0.82;0.32;;;;;;;;;;5096310;28;20386;-80
2024/04/02 05:45:11;;;;;;;1.20;0.37;;;;;;;;;;5096069;28;20790;-78
2024/04/02 05:47:37;;;;;;;0.40;0.20;;;;;;;;;;5096786;28;20397;-82
2024/04/02 05:50:04;;;;;;;0.75;0.30;;;;;;;;;;5097056;28;20378;-80
2024/04/02 05:52:30;;;;;;;0.50;0.30;;;;;;;;;;5096791;28;20374;-81
2024/04/02 05:54:56;;;;;;;0.75;0.40;;;;;;;;;;5097280;28;20871;-81
2024/04/02 05:57:22;;;;;;;0.80;0.30;;;;;;;;;;5096929;28;20465;-81
2024/04/02 05:59:52;;;;;;;0.85;0.40;;;;;;;;;;5096647;28;20398;-81
2024/04/02 06:02:18;;;;;;;0.52;0.30;;;;;;;;;;5096733;28;20390;-80
2024/04/02 06:04:44;;;;;;;0.30;0.30;;;;;;;;;;5096868;28;20416;-81
2024/04/02 06:07:10;;;;;;;0.40;0.30;;;;;;;;;;5096216;28;20427;-81
2024/04/02 06:09:37;;;;;;;1.42;0.40;;;;;;;;;;5095554;28;20366;-82
2024/04/02 06:12:04;;;;;;;1.10;0.65;;;;;;;;;;5095882;28;20891;-79
2024/04/02 06:14:32;;;;;;;0.75;0.40;;;;;;;;;;5096096;28;20374;-79
2024/04/02 06:16:58;;;;;;;1.80;0.60;;;;;;;;;;5095582;28;20374;-79
2024/04/02 06:19:24;;;;;;;0.40;0.40;;;;;;;;;;5099109;28;20381;-79
2024/04/02 06:21:50;;;;;;;0.80;0.50;;;;;;;;;;5094335;28;20386;-80
2024/04/02 06:24:16;;;;;;;1.00;0.40;;;;;;;;;;5094316;28;20405;-81
2024/04/02 06:26:42;;;;;;;0.80;0.40;;;;;;;;;;5094402;28;20370;-80
2024/04/02 06:29:08;;;;;;;0.90;0.50;;;;;;;;;;5095079;28;20374;-79
2024/04/02 06:31:34;;;;;;;1.38;0.40;;;;;;;;;;5095247;28;20411;-79
2024/04/02 06:34:00;;;;;;;0.43;0.43;;;;;;;;;;5095387;28;20477;-79
2024/04/02 06:36:26;;;;;;;0.98;0.55;;;;;;;;;;5094201;28;20433;-79
2024/04/02 06:38:52;;;;;;;1.17;0.32;;;;;;;;;;5095254;28;20401;-79
2024/04/02 06:41:18;;;;;;;0.68;0.50;;;;;;;;;;5095021;28;20385;-79
2024/04/02 06:43:44;;;;;;;0.93;0.60;;;;;;;;;;5095435;28;20776;-79
2024/04/02 06:46:10;;;;;;;1.75;0.60;;;;;;;;;;5095375;28;20406;-79
2024/04/02 06:48:36;;;;;;;0.50;0.40;;;;;;;;;;5095077;28;20536;-79
2024/04/02 06:51:03;;;;;;;1.02;0.40;;;;;;;;;;5094799;28;20377;-79
2024/04/02 06:53:29;;;;;;;1.70;0.55;;;;;;;;;;5094821;28;20378;-79
2024/04/02 06:55:56;;;;;;;1.27;0.50;;;;;;;;;;5094319;28;20938;-79
2024/04/02 06:58:22;;;;;;;0.40;0.30;;;;;;;;;;5094560;28;20879;-79
2024/04/02 07:00:48;;;;;;;1.70;0.60;;;;;;;;;;5094892;28;20460;-79
2024/04/02 07:03:18;;;;;;;1.00;0.50;;;;;;;;;;5094663;28;20467;-79
2024/04/02 07:05:44;;;;;;;0.93;0.47;;;;;;;;;;5095201;28;20405;-79
2024/04/02 07:08:10;;;;;;;0.95;0.30;;;;;;;;;;5095358;28;20435;-79
2024/04/02 07:10:36;;;;;;;2.28;0.60;;;;;;;;;;5094865;28;20804;-79
2024/04/02 07:13:03;;;;;;;1.48;0.50;;;;;;;;;;5094961;28;20435;-79
2024/04/02 07:15:29;;;;;;;1.05;0.40;;;;;;;;;;5095045;28;20389;-79
2024/04/02 07:17:55;;;;;;;1.65;0.45;;;;;;;;;;5094167;28;20465;-79
2024/04/02 07:20:22;;;;;;;1.15;0.50;;;;;;;;;;5094726;28;20461;-79
2024/04/02 07:22:48;;;;;;;1.50;0.60;;;;;;;;;;5094298;28;20461;-79
2024/04/02 07:25:14;;;;;;;1.60;0.60;;;;;;;;;;5094638;28;20835;-79
2024/04/02 07:27:40;;;;;;;1.55;0.60;;;;;;;;;;5094724;28;20377;-79
2024/04/02 07:30:07;;;;;;;2.40;0.55;;;;;;;;;;5095463;28;20381;-79
2024/04/02 07:32:33;;;;;;;2.55;0.70;;;;;;;;;;5094864;28;20409;-79
2024/04/02 07:34:59;;;;;;;2.35;0.60;;;;;;;;;;5095235;28;20416;-79
2024/04/02 07:37:26;;;;;;;2.08;0.52;;;;;;;;;;5094900;28;20390;-79
2024/04/02 07:39:52;;;;;;;2.63;0.50;;;;;;;;;;5094876;28;20376;-79
2024/04/02 07:42:19;;;;;;;1.27;0.60;;;;;;;;;;5094698;28;20396;-79
2024/04/02 07:44:44;;;;;;;2.13;0.68;;;;;;;;;;5094617;28;20431;-79
2024/04/02 07:47:11;;;;;;;2.90;0.70;;;;;;;;;;5094983;28;20382;-79
2024/04/02 07:49:37;;;;;;;3.30;0.70;;;;;;;;;;5094943;28;20374;-79
2024/04/02 07:52:03;;;;;;;1.73;0.70;;;;;;;;;;5094371;28;20374;-79
2024/04/02 07:54:29;;;;;;;3.85;1.20;;;;;;;;;;5094597;28;20455;-79
2024/04/02 07:56:55;;;;;;;2.28;0.90;;;;;;;;;;5094004;28;20401;-79
2024/04/02 07:59:21;;;;;;;4.13;0.70;;;;;;;;;;5094473;28;20373;-79
2024/04/02 08:01:47;;;;;;;2.50;0.80;;;;;;;;;;5094408;28;20382;-79
2024/04/02 08:04:13;;;;;;;3.10;0.80;;;;;;;;;;5094722;28;20485;-79
2024/04/02 08:06:40;;;;;;;3.00;1.00;;;;;;;;;;5095443;28;20378;-79
2024/04/02 08:09:06;;;;;;;2.88;0.77;;;;;;;;;;5098215;28;20409;-79
2024/04/02 08:11:32;;;;;;;4.27;1.10;;;;;;;;;;5097876;28;20455;-79
2024/04/02 08:13:58;;;;;;;2.78;0.80;;;;;;;;;;5097473;28;20426;-79
2024/04/02 08:16:24;;;;;;;3.30;0.90;;;;;;;;;;5097978;28;20379;-79
2024/04/02 08:18:50;;;;;;;2.53;0.70;;;;;;;;;;5097364;28;20386;-79
2024/04/02 08:21:16;;;;;;;2.78;0.90;;;;;;;;;;5097055;28;20720;-79
2024/04/02 08:23:42;;;;;;;4.32;1.10;;;;;;;;;;5097483;28;20844;-79
2024/04/02 08:26:08;;;;;;;3.80;1.00;;;;;;;;;;5097531;28;20409;-79
2024/04/02 08:28:34;;;;;;;2.53;0.77;;;;;;;;;;5097643;28;20952;-79
2024/04/02 08:31:00;;;;;;;3.20;0.98;;;;;;;;;;5097883;28;20388;-79
2024/04/02 08:33:27;;;;;;;3.73;1.13;;;;;;;;;;5097905;28;20402;-79
2024/04/02 08:35:53;;;;;;;3.97;1.23;;;;;;;;;;5097570;28;20370;-79
2024/04/02 08:38:19;;;;;;;2.38;0.88;;;;;;;;;;5097696;28;20404;-79
2024/04/02 08:40:50;;;;;;;3.08;0.85;;;;;;;;;;5097369;28;20409;-79
2024/04/02 08:43:16;;;;;;;4.72;1.30;;;;;;;;;;5097800;28;20454;-79
2024/04/02 08:45:45;;;;;;;3.63;1.35;;;;;;;;;;5097776;28;20406;-79
2024/04/02 08:48:12;;;;;;;4.05;1.15;;;;;;;;;;5094741;28;20864;-79
2024/04/02 08:50:41;;;;;;;3.35;0.98;;;;;;;;;;5096807;28;20881;-79
2024/04/02 08:53:07;;;;;;;5.47;1.17;;;;;;;;;;5097379;28;21000;-80
2024/04/02 08:55:34;;;;;;;4.53;0.95;;;;;;;;;;5097708;28;20403;-79
2024/04/02 08:58:01;;;;;;;3.13;1.00;;;;;;;;;;5096928;28;20843;-79
2024/04/02 09:00:27;;;;;;;2.33;0.80;;;;;;;;;;5097766;28;20469;-79
2024/04/02 09:02:53;;;;;;;4.05;0.68;;;;;;;;;;5098060;28;20421;-80
2024/04/02 09:05:19;;;;;;;4.25;1.08;;;;;;;;;;5097342;28;21062;-80
2024/04/02 09:07:46;;;;;;;3.30;0.80;;;;;;;;;;5097245;28;20469;-80
2024/04/02 09:10:11;;;;;;;3.45;0.77;;;;;;;;;;5097012;28;20374;-80
2024/04/02 09:12:39;;;;;;;3.63;1.00;;;;;;;;;;5096930;28;20839;-80
2024/04/02 09:15:05;;;;;;;2.97;1.00;;;;;;;;;;5096919;28;20386;-79
2024/04/02 09:17:31;;;;;;;3.00;0.80;;;;;;;;;;5096814;28;20385;-80
2024/04/02 09:19:57;;;;;;;3.63;0.70;;;;;;;;;;5096003;28;20386;-80
2024/04/02 09:22:23;;;;;;;2.70;0.63;;;;;;;;;;5096771;28;20447;-80
2024/04/02 09:24:50;;;;;;;3.72;0.80;;;;;;;;;;5097770;28;20401;-80
2024/04/02 09:27:20;;;;;;;6.37;1.20;;;;;;;;;;5097334;28;20374;-80
2024/04/02 09:29:46;;;;;;;5.10;0.90;;;;;;;;;;5097195;28;20404;-80
2024/04/02 09:32:13;;;;;;;2.72;0.80;;;;;;;;;;5096577;28;20402;-82
2024/04/02 09:34:39;;;;;;;3.40;0.90;;;;;;;;;;5096819;28;20887;-79
2024/04/02 09:37:20;;;;;;;3.85;1.00;;;;;;;;;;5096685;28;20460;-80
2024/04/02 09:39:47;;;;;;;3.25;0.90;;;;;;;;;;5096502;28;20402;-80
2024/04/02 09:42:14;;;;;;;5.07;0.90;;;;;;;;;;5096128;28;20834;-79
2024/04/02 09:44:40;;;;;;;3.38;0.70;;;;;;;;;;5095886;28;20471;-79
2024/04/02 09:47:07;;;;;;;3.60;0.80;;;;;;;;;;5096038;28;20470;-79
2024/04/02 09:49:34;;;;;;;3.85;1.90;;;;;;;;;;5096059;28;20389;-79
2024/04/02 09:52:01;;;;;;;3.40;1.70;;;;;;;;;;5095907;28;20424;-79
2024/04/02 09:54:28;;;;;;;2.97;1.58;;;;;;;;;;5095620;28;20429;-79
2024/04/02 09:56:54;;;;;;;2.90;1.10;;;;;;;;;;5096356;28;20390;-79
2024/04/02 09:59:20;;;;;;;5.20;1.30;;;;;;;;;;5096521;28;20388;-79
2024/04/02 10:01:47;;;;;;;2.33;1.05;;;;;;;;;;5095940;28;20468;-79
2024/04/02 10:04:15;;;;;;;3.88;1.10;;;;;;;;;;5095547;28;20389;-79
2024/04/02 10:06:42;;;;;;;3.35;1.10;;;;;;;;;;5095994;28;20366;-79
2024/04/02 10:09:11;;;;;;;3.00;1.02;;;;;;;;;;5095735;28;20499;-80
2024/04/02 10:11:41;;;;;;;2.60;0.70;;;;;;;;;;5095948;28;20409;-80
2024/04/02 10:14:12;;;;;;;2.78;0.60;;;;;;;;;;5095899;28;20370;-80
2024/04/02 10:16:45;;;;;;;1.73;0.50;;;;;;;;;;5096037;28;20370;-82
2024/04/02 10:19:12;;;;;;;1.30;0.50;;;;;;;;;;5095758;28;20385;-80
2024/04/02 10:21:38;;;;;;;1.00;0.50;;;;;;;;;;5096009;28;20432;-80
2024/04/02 10:24:04;;;;;;;1.02;0.40;;;;;;;;;;5095619;28;20848;-80
2024/04/02 10:26:31;;;;;;;2.60;0.50;;;;;;;;;;5095585;28;20408;-80
2024/04/02 10:28:57;;;;;;;1.45;0.50;;;;;;;;;;5095256;28;20891;-80
2024/04/02 10:31:33;;;;;;;0.88;0.45;;;;;;;;;;5092522;28;20382;-80
2024/04/02 10:33:59;;;;;;;1.58;0.52;;;;;;;;;;5077110;28;20390;-80
2024/04/02 10:36:25;;;;;;;1.17;0.60;;;;;;;;;;5094986;28;20825;-80
2024/04/02 10:38:51;;;;;;;2.20;0.82;;;;;;;;;;5095193;28;20438;-80
2024/04/02 10:41:18;;;;;;;2.30;1.00;;;;;;;;;;5095156;28;20463;-80
2024/04/02 10:43:44;;;;;;;1.10;0.40;;;;;;;;;;5095699;28;20416;-80
2024/04/02 10:46:10;;;;;;;1.52;0.40;;;;;;;;;;5095415;28;20408;-80
2024/04/02 10:48:36;;;;;;;1.40;0.40;;;;;;;;;;5095597;28;20386;-80
2024/04/02 10:51:02;;;;;;;2.55;0.50;;;;;;;;;;5095401;28;20378;-80
2024/04/02 10:53:28;;;;;;;1.30;0.45;;;;;;;;;;5095558;28;20376;-80
2024/04/02 10:55:54;;;;;;;0.88;0.30;;;;;;;;;;5095494;28;20472;-81
2024/04/02 10:58:20;;;;;;;0.75;0.32;;;;;;;;;;5095365;28;20389;-80
2024/04/02 11:00:46;;;;;;;1.25;0.50;;;;;;;;;;5095270;28;20390;-81
2024/04/02 11:03:12;;;;;;;0.82;0.40;;;;;;;;;;5095759;28;20385;-81
2024/04/02 11:05:38;;;;;;;1.57;0.40;;;;;;;;;;5094759;28;20898;-81
2024/04/02 11:08:04;;;;;;;1.88;0.47;;;;;;;;;;5094059;28;20378;-81
2024/04/02 11:10:30;;;;;;;1.48;0.50;;;;;;;;;;5095945;28;20370;-81
2024/04/02 11:12:56;;;;;;;1.58;0.60;;;;;;;;;;5095415;28;20847;-82
2024/04/02 11:15:22;;;;;;;1.55;0.52;;;;;;;;;;5095492;28;20405;-81
2024/04/02 11:17:48;;;;;;;1.23;0.40;;;;;;;;;;5094994;28;20374;-82
2024/04/02 11:20:15;;;;;;;2.25;0.50;;;;;;;;;;5095185;28;20401;-82
2024/04/02 11:25:25;;;;;;;2.08;0.40;;;;;;;;;;5095036;28;20409;-81
2024/04/02 11:27:51;;;;;;;0.90;0.40;;;;;;;;;;5094283;28;20469;-81
2024/04/02 11:30:20;;;;;;;0.88;0.30;;;;;;;;;;5094902;28;20489;-81
2024/04/02 11:32:46;;;;;;;4.70;0.60;;;;;;;;;;5093715;28;20469;-82
2024/04/02 11:35:16;;;;;;;6.75;0.65;;;;;;;;;;5095372;28;20378;-81
2024/04/02 11:37:43;;;;;;;1.00;0.40;;;;;;;;;;5095002;28;20409;-82
2024/04/02 11:40:15;;;;;;;0.77;0.30;;;;;;;;;;5094538;28;20404;-82
2024/04/02 11:42:41;;;;;;;0.63;0.30;;;;;;;;;;5097489;28;20413;-82
2024/04/02 11:45:08;;;;;;;0.77;0.30;;;;;;;;;;5098926;28;20430;-82
2024/04/02 11:47:34;;;;;;;2.40;0.50;;;;;;;;;;5098721;28;20435;-82
2024/04/02 11:50:01;;;;;;;2.40;0.60;;;;;;;;;;5098559;28;20449;-82
2024/04/02 11:52:27;;;;;;;1.30;0.40;;;;;;;;;;5098248;28;20385;-82
2024/04/02 11:54:53;;;;;;;0.98;0.40;;;;;;;;;;5098269;28;20736;-82
2024/04/02 12:00:22;;;;;;;0.73;0.30;;;;;;;;;;5099429;28;20911;-82
2024/04/02 12:02:49;;;;;;;0.88;0.30;;;;;;;;;;5098212;28;20794;-82
2024/04/02 12:05:16;;;;;;;0.80;0.30;;;;;;;;;;5099259;28;20436;-82
2024/04/02 12:07:43;;;;;;;0.65;0.30;;;;;;;;;;5098709;28;20377;-82
2024/04/02 12:10:10;;;;;;;0.85;0.30;;;;;;;;;;5098945;28;20385;-82
2024/04/02 12:12:37;;;;;;;0.82;0.40;;;;;;;;;;5099104;28;20413;-82
2024/04/02 12:15:04;;;;;;;1.08;0.20;;;;;;;;;;5098626;28;20382;-82
2024/04/02 12:17:30;;;;;;;1.50;0.30;;;;;;;;;;5097418;28;20389;-81
2024/04/02 12:19:56;;;;;;;1.38;0.40;;;;;;;;;;5097732;28;20728;-82
2024/04/02 12:22:26;;;;;;;2.13;0.40;;;;;;;;;;5097590;28;20534;-81
2024/04/02 12:24:52;;;;;;;0.30;0.20;;;;;;;;;;5096920;28;20398;-81
2024/04/02 12:27:21;;;;;;;1.00;0.32;;;;;;;;;;5097756;28;20378;-82
2024/04/02 12:29:52;;;;;;;1.00;0.30;;;;;;;;;;5097189;28;20727;-82
2024/04/02 12:32:18;;;;;;;1.10;0.30;;;;;;;;;;5098110;28;20402;-82
2024/04/02 12:34:46;;;;;;;1.05;0.30;;;;;;;;;;5097540;28;20821;-82
2024/04/02 12:37:12;;;;;;;1.17;0.32;;;;;;;;;;5097338;28;20370;-82
2024/04/02 12:39:40;;;;;;;0.90;0.30;;;;;;;;;;5097516;28;20386;-82
2024/04/02 12:42:07;;;;;;;0.63;0.30;;;;;;;;;;5097654;28;20380;-82
2024/04/02 12:44:33;;;;;;;1.00;0.40;;;;;;;;;;5097376;28;20409;-82
2024/04/02 12:47:00;;;;;;;1.00;0.30;;;;;;;;;;5097142;28;20386;-82
2024/04/02 12:49:26;;;;;;;0.70;0.30;;;;;;;;;;5096717;28;20423;-82
2024/04/02 12:51:52;;;;;;;0.60;0.20;;;;;;;;;;5097250;28;20385;-82
2024/04/02 12:54:18;;;;;;;0.60;0.38;;;;;;;;;;5095959;28;20381;-82
2024/04/02 12:56:45;;;;;;;0.85;0.40;;;;;;;;;;5097253;28;20761;-82
2024/04/02 12:59:11;;;;;;;1.77;0.50;;;;;;;;;;5096729;28;20779;-82
2024/04/02 13:01:37;;;;;;;1.23;0.32;;;;;;;;;;5097583;28;20384;-82
2024/04/02 13:04:03;;;;;;;2.42;0.50;;;;;;;;;;5097568;28;20453;-82
2024/04/02 13:06:29;;;;;;;0.70;0.30;;;;;;;;;;5096410;28;20473;-82
2024/04/02 13:08:55;;;;;;;0.98;0.30;;;;;;;;;;5096393;28;20879;-82
2024/04/02 13:11:21;;;;;;;0.70;0.30;;;;;;;;;;5096986;28;20370;-82
2024/04/02 13:13:47;;;;;;;0.97;0.40;;;;;;;;;;5096314;28;20390;-82
2024/04/02 13:16:20;;;;;;;0.90;0.50;;;;;;;;;;5096613;28;20544;-82
2024/04/02 13:18:46;;;;;;;0.77;0.35;;;;;;;;;;5096428;28;20381;-82
2024/04/02 13:21:14;;;;;;;1.20;0.43;;;;;;;;;;5095935;28;20386;-82
2024/04/02 13:23:40;;;;;;;1.17;0.40;;;;;;;;;;5096802;28;20385;-82
2024/04/02 13:26:10;;;;;;;0.95;0.40;;;;;;;;;;5096671;28;20519;-82
2024/04/02 13:28:37;;;;;;;0.60;0.30;;;;;;;;;;5097124;28;20410;-82
2024/04/02 13:31:09;;;;;;;0.95;0.30;;;;;;;;;;5096912;28;20370;-82
2024/04/02 13:33:36;;;;;;;0.80;0.40;;;;;;;;;;5096186;28;20473;-83
2024/04/02 13:36:06;;;;;;;0.90;0.35;;;;;;;;;;5096439;28;20382;-82
2024/04/02 13:38:32;;;;;;;0.88;0.30;;;;;;;;;;5096099;28;20394;-82
2024/04/02 13:40:58;;;;;;;0.90;0.30;;;;;;;;;;5096537;28;20394;-82
2024/04/02 13:43:24;;;;;;;0.57;0.40;;;;;;;;;;5096992;28;20383;-82
2024/04/02 13:46:00;;;;;;;1.35;0.60;;;;;;;;;;5096633;28;20924;-82
2024/04/02 13:48:26;;;;;;;1.10;0.30;;;;;;;;;;5096919;28;20392;-83
2024/04/02 13:51:13;;;;;;;0.80;0.30;;;;;;;;;;5096439;28;20366;-82
2024/04/02 13:53:40;;;;;;;1.40;0.30;;;;;;;;;;5095690;28;20386;-82
2024/04/02 13:56:08;;;;;;;0.60;0.30;;;;;;;;;;5096040;28;20424;-82
2024/04/02 13:58:34;;;;;;;1.20;0.30;;;;;;;;;;5096329;28;20455;-82
2024/04/02 14:01:01;;;;;;;0.93;0.20;;;;;;;;;;5096199;28;20852;-82
2024/04/02 14:03:27;;;;;;;1.30;0.40;;;;;;;;;;5095163;28;20465;-82
2024/04/02 14:05:56;;;;;;;0.98;0.38;;;;;;;;;;5095142;28;20454;-82
2024/04/02 14:08:23;;;;;;;0.77;0.28;;;;;;;;;;5094789;28;20867;-82
2024/04/02 14:10:49;;;;;;;0.47;0.20;;;;;;;;;;5094314;28;20374;-81
2024/04/02 14:13:17;;;;;;;0.73;0.30;;;;;;;;;;5095404;28;20390;-82
2024/04/02 14:15:43;;;;;;;0.60;0.30;;;;;;;;;;5094624;28;20437;-81
2024/04/02 14:18:09;;;;;;;0.82;0.30;;;;;;;;;;5095767;28;20437;-82
2024/04/02 14:20:35;;;;;;;1.00;0.40;;;;;;;;;;5095522;28;20846;-82
2024/04/02 14:23:02;;;;;;;1.05;0.30;;;;;;;;;;5095543;28;20515;-82
2024/04/02 14:25:28;;;;;;;0.80;0.30;;;;;;;;;;5094937;28;20401;-82
2024/04/02 14:27:57;;;;;;;1.27;0.35;;;;;;;;;;5094737;28;20366;-82
2024/04/02 14:30:23;;;;;;;1.92;0.50;;;;;;;;;;5094716;28;20707;-81
2024/04/02 14:32:49;;;;;;;1.10;0.30;;;;;;;;;;5094801;28;20436;-82
2024/04/02 14:35:16;;;;;;;0.88;0.30;;;;;;;;;;5095071;28;20386;-81
2024/04/02 14:37:42;;;;;;;0.47;0.30;;;;;;;;;;5094932;28;20405;-81
2024/04/02 14:40:09;;;;;;;0.80;0.55;;;;;;;;;;5094925;28;20386;-81
2024/04/02 14:42:35;;;;;;;1.50;0.90;;;;;;;;;;5095342;28;20380;-81
2024/04/02 14:45:01;;;;;;;1.20;0.75;;;;;;;;;;5095175;28;20518;-81